Central Islip, New York
Current Conditions -  °F | °C
As of 7:56 PM on Friday 19 Dec 2014 (Local Time) from KISP Reporting Station
Broken Clouds Broken Clouds  
Wind Chill: 26°   Ceiling: 3200
Heat Index: 34°   Visibility: 10mi
Dew Point: 22°   Wind: 10mph
Humidity: 61%   Direction: 350°N
Pressure: 30.12"   Gusts: NA
Location:  40.8°N, 73.21°W
Report Text: KISP 200056Z 35009KT 10SM BKN032 01/M06 A3012 RMK AO2 SLP200 T00111056
Loading
Personal Weather Stations






























Interactive Weather Map New forecast layout! Learn more

10-Day Weather Forecast

Advertisements
Track Severe Weather on mobile